Time;durP1;ratioP1;P1;durP2;ratioP2;P2;SDS_P1;SDS_P2;PMS_P1;PMS_P2;Temp;Humidity;BMP_temperature;BMP_pressure;BME280_temperature;BME280_humidity;BME280_pressure;Samples;Min_cycle;Max_cycle;Signal;HPM_P1;HPM_P2
2021/11/21 00:00:28;;;;;;;0.30;0.30;;;2.80;99.90;;;;;;4997530;28;20464;-74
2021/11/21 00:02:54;;;;;;;0.40;0.40;;;2.70;99.90;;;;;;4997638;28;20033;-74
2021/11/21 00:05:20;;;;;;;0.40;0.40;;;2.70;99.90;;;;;;5014902;28;20034;-74
2021/11/21 00:07:45;;;;;;;0.40;0.40;;;2.80;99.90;;;;;;5015064;28;20030;-74
2021/11/21 00:10:12;;;;;;;0.30;0.30;;;2.80;99.90;;;;;;5014826;28;20084;-74
2021/11/21 00:12:38;;;;;;;1.10;0.95;;;2.90;99.90;;;;;;5014850;28;20076;-74
2021/11/21 00:15:06;;;;;;;0.30;0.30;;;2.80;99.90;;;;;;5014835;28;20026;-74
2021/11/21 00:20:03;;;;;;;0.30;0.30;;;2.80;99.90;;;;;;5013405;28;20397;-77
2021/11/21 00:22:34;;;;;;;23.58;5.45;;;2.90;99.90;;;;;;5015041;28;20108;-77
2021/11/21 00:25:01;;;;;;;0.40;0.40;;;3.00;99.90;;;;;;5014857;28;20025;-76
2021/11/21 00:27:26;;;;;;;0.95;0.95;;;3.00;99.90;;;;;;5013603;28;20145;-78
2021/11/21 00:29:54;;;;;;;0.40;0.40;;;3.10;99.90;;;;;;5014946;28;20061;-77
2021/11/21 00:32:20;;;;;;;0.40;0.40;;;3.10;99.90;;;;;;5013477;28;20033;-77
2021/11/21 00:34:47;;;;;;;0.40;0.40;;;2.90;99.90;;;;;;5013470;28;20100;-77
2021/11/21 00:37:14;;;;;;;1.85;1.75;;;2.90;99.90;;;;;;5014736;28;20489;-77
2021/11/21 00:39:39;;;;;;;0.30;0.30;;;2.90;99.90;;;;;;5013415;28;20022;-77
2021/11/21 00:42:05;;;;;;;0.35;0.35;;;2.90;99.90;;;;;;5013370;28;20456;-77
2021/11/21 00:44:31;;;;;;;0.35;0.35;;;3.00;99.90;;;;;;5014482;28;20112;-77
2021/11/21 00:46:57;;;;;;;0.40;0.40;;;3.00;99.90;;;;;;5014667;28;20389;-78
2021/11/21 00:49:23;;;;;;;0.30;0.30;;;2.90;99.90;;;;;;5013302;28;20029;-76
2021/11/21 00:51:49;;;;;;;0.30;0.30;;;2.90;99.90;;;;;;5014506;28;20032;-76
2021/11/21 00:54:25;;;;;;;0.40;0.40;;;3.20;99.90;;;;;;5013254;28;20022;-76
2021/11/21 00:56:51;;;;;;;5.10;3.20;;;3.20;99.90;;;;;;5013192;28;20113;-77
2021/11/21 00:59:19;;;;;;;0.50;0.50;;;3.10;99.90;;;;;;5014234;28;20285;-77
2021/11/21 01:01:47;;;;;;;0.30;0.30;;;3.00;99.90;;;;;;5013165;28;20030;-76
2021/11/21 01:04:13;;;;;;;0.32;0.32;;;2.80;99.90;;;;;;5014230;28;20030;-77
2021/11/21 01:06:40;;;;;;;0.50;0.50;;;2.60;99.90;;;;;;5012232;28;20113;-77
2021/11/21 01:09:05;;;;;;;1.88;1.40;;;2.60;99.90;;;;;;5014177;28;20405;-78
2021/11/21 01:11:31;;;;;;;0.40;0.40;;;2.60;99.90;;;;;;5012709;28;20121;-77
2021/11/21 01:13:57;;;;;;;1.55;1.33;;;2.60;99.90;;;;;;5014285;28;20026;-77
2021/11/21 01:16:22;;;;;;;0.75;0.75;;;2.40;99.90;;;;;;5012765;28;20516;-77
2021/11/21 01:18:48;;;;;;;3.03;2.38;;;2.40;99.90;;;;;;5014085;28;20033;-76
2021/11/21 01:21:14;;;;;;;0.65;0.65;;;2.40;99.90;;;;;;5014063;28;20026;-77
2021/11/21 01:23:40;;;;;;;0.38;0.38;;;2.60;99.90;;;;;;5013943;28;20033;-78
2021/11/21 01:26:06;;;;;;;0.40;0.40;;;2.80;99.90;;;;;;5013767;28;20030;-77
2021/11/21 01:28:32;;;;;;;0.40;0.40;;;2.70;99.90;;;;;;5014052;28;20034;-77
2021/11/21 01:30:58;;;;;;;0.40;0.40;;;2.70;99.90;;;;;;5013817;28;20044;-76
2021/11/21 01:33:24;;;;;;;0.40;0.40;;;2.60;99.90;;;;;;5012531;28;20022;-77
2021/11/21 01:35:49;;;;;;;0.40;0.40;;;2.80;99.90;;;;;;5013643;28;20046;-77
2021/11/21 01:38:15;;;;;;;0.30;0.30;;;2.90;99.90;;;;;;5013666;28;20029;-77
2021/11/21 01:40:41;;;;;;;0.30;0.30;;;3.00;99.90;;;;;;5012479;28;20026;-76
2021/11/21 01:43:08;;;;;;;0.30;0.30;;;3.20;99.90;;;;;;5013707;28;20026;-77
2021/11/21 01:45:34;;;;;;;0.30;0.30;;;3.30;99.90;;;;;;5013461;28;20030;-77
2021/11/21 01:48:00;;;;;;;0.73;0.73;;;3.40;99.90;;;;;;5013663;28;20481;-76
2021/11/21 01:50:33;;;;;;;0.30;0.30;;;3.30;99.90;;;;;;5012234;28;20026;-77
2021/11/21 01:52:59;;;;;;;0.30;0.30;;;3.20;99.90;;;;;;5013335;28;20026;-76
2021/11/21 01:55:26;;;;;;;0.30;0.30;;;3.30;99.90;;;;;;5013312;28;20033;-77
2021/11/21 01:57:53;;;;;;;0.43;0.43;;;3.40;99.90;;;;;;5012478;28;20022;-77
2021/11/21 02:00:20;;;;;;;0.30;0.30;;;3.50;99.90;;;;;;5012009;28;20022;-77
2021/11/21 02:02:46;;;;;;;0.30;0.30;;;3.40;99.90;;;;;;5012143;28;20058;-76
2021/11/21 02:05:12;;;;;;;0.40;0.40;;;3.20;99.90;;;;;;5011838;28;20488;-77
2021/11/21 02:07:41;;;;;;;0.30;0.30;;;3.20;99.90;;;;;;5011856;28;20117;-77
2021/11/21 02:10:09;;;;;;;3.03;1.40;;;3.10;99.90;;;;;;5013108;28;20033;-77
2021/11/21 02:12:35;;;;;;;0.47;0.47;;;3.10;99.90;;;;;;5013144;28;20068;-77
2021/11/21 02:15:01;;;;;;;0.30;0.30;;;3.10;99.90;;;;;;5013045;28;20084;-77
2021/11/21 02:17:28;;;;;;;0.40;0.40;;;3.00;99.90;;;;;;5012471;28;20025;-77
2021/11/21 02:19:54;;;;;;;0.30;0.30;;;2.90;99.90;;;;;;5011383;28;20029;-77
2021/11/21 02:22:20;;;;;;;0.55;0.55;;;3.00;99.90;;;;;;5012964;28;20084;-77
2021/11/21 02:24:46;;;;;;;0.30;0.30;;;3.00;99.90;;;;;;5012886;28;20029;-77
2021/11/21 02:27:18;;;;;;;0.30;0.30;;;2.90;99.90;;;;;;5013222;28;20030;-77
2021/11/21 02:29:44;;;;;;;;;;;3.10;99.90;;;;;;5013352;28;20033;-77
2021/11/21 02:32:10;;;;;;;0.30;0.30;;;3.00;99.90;;;;;;5012829;28;20004;-77
2021/11/21 02:34:35;;;;;;;0.30;0.30;;;3.00;99.90;;;;;;5011406;28;20452;-76
2021/11/21 02:37:05;;;;;;;0.30;0.30;;;3.00;99.90;;;;;;5028021;28;20382;-77
2021/11/21 02:39:30;;;;;;;0.30;0.30;;;2.90;99.90;;;;;;5013085;28;21683;-77
2021/11/21 02:41:56;;;;;;;0.30;0.30;;;2.80;99.90;;;;;;5012779;28;20030;-76
2021/11/21 02:44:26;;;;;;;0.30;0.30;;;2.80;99.90;;;;;;5012618;28;20034;-78
2021/11/21 02:46:52;;;;;;;0.30;0.30;;;2.80;99.90;;;;;;5011380;28;20030;-76
2021/11/21 02:49:17;;;;;;;0.77;0.77;;;2.90;99.90;;;;;;5012520;28;20105;-77
2021/11/21 02:51:43;;;;;;;0.30;0.30;;;2.90;99.90;;;;;;5011231;28;20160;-77
2021/11/21 02:54:09;;;;;;;0.40;0.40;;;2.80;99.90;;;;;;5012446;28;20025;-77
2021/11/21 02:56:35;;;;;;;0.40;0.40;;;2.80;99.90;;;;;;5012297;28;20029;-77
2021/11/21 02:59:00;;;;;;;0.30;0.30;;;2.90;99.90;;;;;;5027739;28;20097;-77
2021/11/21 03:01:28;;;;;;;0.30;0.30;;;2.90;99.90;;;;;;5012339;28;20021;-77
2021/11/21 03:03:54;;;;;;;0.30;0.30;;;3.10;99.90;;;;;;5012397;28;20029;-77
2021/11/21 03:06:21;;;;;;;0.30;0.30;;;3.10;99.90;;;;;;5012262;28;20056;-77
2021/11/21 03:08:46;;;;;;;0.30;0.30;;;3.10;99.90;;;;;;5012456;28;20034;-77
2021/11/21 03:11:18;;;;;;;0.40;0.40;;;3.00;99.90;;;;;;5012312;28;20026;-76
2021/11/21 03:13:44;;;;;;;0.30;0.30;;;2.80;99.90;;;;;;5011226;28;20029;-77
2021/11/21 03:16:10;;;;;;;0.47;0.47;;;2.70;99.90;;;;;;5012297;28;20077;-77
2021/11/21 03:18:36;;;;;;;0.30;0.30;;;2.70;99.90;;;;;;5012311;28;20034;-77
2021/11/21 03:21:02;;;;;;;0.30;0.30;;;2.70;99.90;;;;;;5012129;28;20033;-77
2021/11/21 03:23:28;;;;;;;0.30;0.30;;;2.60;99.90;;;;;;5010952;28;20026;-76
2021/11/21 03:26:05;;;;;;;0.30;0.30;;;2.70;99.90;;;;;;5012459;28;20078;-77
2021/11/21 03:28:31;;;;;;;0.40;0.40;;;2.60;99.90;;;;;;5012355;28;20181;-76
2021/11/21 03:30:57;;;;;;;0.30;0.30;;;2.60;99.90;;;;;;5014588;28;20030;-77
2021/11/21 03:33:22;;;;;;;0.30;0.30;;;2.70;99.90;;;;;;5014865;28;20080;-77
2021/11/21 03:35:48;;;;;;;0.30;0.30;;;2.80;99.90;;;;;;5014537;28;20018;-77
2021/11/21 03:38:14;;;;;;;0.30;0.30;;;2.90;99.90;;;;;;5015986;28;20018;-77
2021/11/21 03:40:40;;;;;;;0.63;0.63;;;2.90;99.90;;;;;;5014644;28;20025;-76
2021/11/21 03:43:06;;;;;;;0.30;0.30;;;3.00;99.90;;;;;;5014660;28;20037;-77
2021/11/21 03:45:32;;;;;;;0.57;0.57;;;2.90;99.90;;;;;;5015968;28;20030;-77
2021/11/21 03:47:58;;;;;;;1.20;1.20;;;3.10;99.90;;;;;;5015866;28;20025;-76
2021/11/21 03:50:24;;;;;;;0.30;0.30;;;3.10;99.90;;;;;;5015817;28;20386;-77
2021/11/21 03:52:50;;;;;;;0.30;0.30;;;3.20;99.90;;;;;;5015750;28;20033;-77
2021/11/21 03:55:18;;;;;;;0.30;0.30;;;3.10;99.90;;;;;;5015660;28;20025;-77
2021/11/21 03:57:45;;;;;;;0.30;0.30;;;3.10;99.90;;;;;;5015630;28;20097;-77
2021/11/21 04:00:18;;;;;;;0.40;0.40;;;3.00;99.90;;;;;;5015621;28;20065;-77
2021/11/21 04:02:44;;;;;;;0.30;0.30;;;3.10;99.90;;;;;;5014487;28;20140;-77
2021/11/21 04:05:12;;;;;;;0.30;0.30;;;3.00;99.90;;;;;;4997745;28;20120;-77
2021/11/21 04:07:38;;;;;;;0.30;0.30;;;3.00;99.90;;;;;;5014216;28;20439;-77
2021/11/21 04:10:04;;;;;;;0.30;0.30;;;3.20;99.90;;;;;;5015397;28;20485;-77
2021/11/21 04:12:31;;;;;;;0.30;0.30;;;3.30;99.90;;;;;;5015232;28;20106;-78
2021/11/21 04:14:56;;;;;;;0.30;0.30;;;3.20;99.90;;;;;;5015096;28;20026;-77
2021/11/21 04:17:22;;;;;;;0.30;0.30;;;3.20;99.90;;;;;;5015278;28;20032;-78
2021/11/21 04:19:48;;;;;;;0.30;0.30;;;3.10;99.90;;;;;;5014947;28;20026;-77
2021/11/21 04:22:14;;;;;;;0.40;0.40;;;3.20;99.90;;;;;;5015216;28;20097;-77
2021/11/21 04:24:40;;;;;;;0.30;0.30;;;3.20;99.90;;;;;;5014964;28;20026;-77
2021/11/21 04:27:05;;;;;;;0.30;0.30;;;3.20;99.90;;;;;;5015036;28;20049;-76
2021/11/21 04:29:33;;;;;;;0.30;0.30;;;3.20;99.90;;;;;;5014933;28;20026;-77
2021/11/21 04:32:00;;;;;;;0.30;0.30;;;3.20;99.90;;;;;;5014931;28;20022;-77
2021/11/21 04:34:27;;;;;;;0.30;0.30;;;3.00;99.90;;;;;;5014863;28;20022;-77
2021/11/21 04:36:55;;;;;;;0.30;0.30;;;2.80;99.90;;;;;;4997482;28;20026;-77
2021/11/21 04:39:22;;;;;;;0.30;0.30;;;2.70;99.90;;;;;;5014867;28;20018;-77
2021/11/21 04:41:48;;;;;;;0.40;0.40;;;2.70;99.90;;;;;;5013867;28;20083;-77
2021/11/21 04:44:14;;;;;;;0.32;0.32;;;2.80;99.90;;;;;;5013596;28;20034;-77
2021/11/21 04:46:40;;;;;;;0.30;0.30;;;2.90;99.90;;;;;;5014939;28;20022;-78
2021/11/21 04:49:05;;;;;;;0.30;0.30;;;3.00;99.90;;;;;;5014645;28;20037;-78
2021/11/21 04:51:31;;;;;;;0.30;0.30;;;3.10;99.90;;;;;;5014521;28;20496;-77
2021/11/21 04:53:58;;;;;;;0.32;0.32;;;3.10;99.90;;;;;;5013266;28;20026;-79
2021/11/21 04:56:24;;;;;;;0.30;0.30;;;3.00;99.90;;;;;;5014425;28;20101;-78
2021/11/21 04:58:50;;;;;;;0.40;0.40;;;3.00;99.90;;;;;;5014460;28;20018;-77
2021/11/21 05:01:16;;;;;;;0.30;0.30;;;3.00;99.90;;;;;;5014401;28;20506;-77
2021/11/21 05:03:42;;;;;;;0.30;0.30;;;2.90;99.90;;;;;;5014385;28;20030;-77
2021/11/21 05:06:08;;;;;;;0.30;0.30;;;3.00;99.90;;;;;;5012906;28;20133;-77
2021/11/21 05:08:34;;;;;;;0.30;0.30;;;3.00;99.90;;;;;;5014293;28;20026;-77
2021/11/21 05:11:00;;;;;;;0.40;0.40;;;3.10;99.90;;;;;;5012958;28;20022;-77
2021/11/21 05:13:26;;;;;;;0.40;0.40;;;3.20;99.90;;;;;;5013016;28;20033;-78
2021/11/21 05:15:52;;;;;;;0.40;0.40;;;3.30;99.90;;;;;;5014093;28;20084;-77
2021/11/21 05:18:18;;;;;;;0.30;0.30;;;3.20;99.90;;;;;;5014039;28;20494;-78
2021/11/21 05:20:44;;;;;;;0.30;0.30;;;3.10;99.90;;;;;;5014109;28;20026;-77
2021/11/21 05:23:09;;;;;;;0.30;0.30;;;3.40;99.90;;;;;;5013986;28;20034;-77
2021/11/21 05:25:35;;;;;;;0.40;0.40;;;3.40;99.90;;;;;;5012442;28;20128;-77
2021/11/21 05:28:01;;;;;;;0.30;0.30;;;3.30;99.90;;;;;;5012528;28;20033;-77
2021/11/21 05:30:27;;;;;;;0.30;0.30;;;3.40;99.90;;;;;;5012443;28;20429;-77
2021/11/21 05:32:53;;;;;;;0.30;0.30;;;3.50;99.90;;;;;;5013706;28;20489;-78
2021/11/21 05:35:19;;;;;;;0.30;0.30;;;3.40;99.90;;;;;;5012334;28;20030;-77
2021/11/21 05:37:46;;;;;;;0.30;0.30;;;3.30;99.90;;;;;;5012489;28;20026;-77
2021/11/21 05:40:13;;;;;;;0.30;0.30;;;3.40;99.90;;;;;;5013758;28;20022;-76
2021/11/21 05:42:39;;;;;;;0.35;0.35;;;3.40;99.90;;;;;;5013651;28;20381;-77
2021/11/21 05:45:06;;;;;;;0.30;0.30;;;3.40;99.90;;;;;;5012219;28;20033;-77
2021/11/21 05:47:32;;;;;;;0.30;0.30;;;3.20;99.90;;;;;;5013599;28;20026;-77
2021/11/21 05:49:58;;;;;;;0.38;0.38;;;3.20;99.90;;;;;;5013464;28;20076;-77
2021/11/21 05:52:24;;;;;;;0.40;0.40;;;3.10;99.90;;;;;;5012115;28;20033;-77
2021/11/21 05:54:50;;;;;;;0.40;0.40;;;3.00;99.90;;;;;;5028574;28;20366;-77
2021/11/21 05:57:17;;;;;;;0.30;0.30;;;2.90;99.90;;;;;;5012076;28;20036;-77
2021/11/21 05:59:43;;;;;;;0.55;0.55;;;2.90;99.90;;;;;;5013345;28;20026;-77
2021/11/21 06:02:09;;;;;;;0.32;0.32;;;3.00;99.90;;;;;;5012031;28;20058;-77
2021/11/21 06:04:35;;;;;;;0.40;0.40;;;3.10;99.90;;;;;;5012077;28;20123;-77
2021/11/21 06:07:01;;;;;;;0.40;0.40;;;3.10;99.90;;;;;;5013314;28;20101;-77
2021/11/21 06:09:26;;;;;;;0.50;0.50;;;3.10;99.90;;;;;;5013143;28;20129;-77
2021/11/21 06:11:54;;;;;;;0.40;0.40;;;3.00;99.90;;;;;;5013138;28;20030;-77
2021/11/21 06:14:21;;;;;;;0.30;0.30;;;2.90;99.90;;;;;;5028379;28;20037;-77
2021/11/21 06:16:47;;;;;;;0.30;0.30;;;2.80;99.90;;;;;;5012896;28;20040;-77
2021/11/21 06:19:13;;;;;;;0.30;0.30;;;2.80;99.90;;;;;;5011751;28;20490;-77
2021/11/21 06:21:38;;;;;;;0.30;0.30;;;2.90;99.90;;;;;;5012974;28;20032;-77
2021/11/21 06:24:05;;;;;;;0.40;0.40;;;2.90;99.90;;;;;;5011587;28;20033;-76
2021/11/21 06:26:30;;;;;;;0.30;0.30;;;3.00;99.90;;;;;;5011507;28;20022;-77
2021/11/21 06:28:57;;;;;;;0.30;0.30;;;2.90;99.90;;;;;;5012795;28;20041;-77
2021/11/21 06:31:23;;;;;;;0.30;0.30;;;2.80;99.90;;;;;;5012775;28;20026;-77
2021/11/21 06:33:49;;;;;;;0.20;0.20;;;2.80;99.90;;;;;;5012891;28;20022;-77
2021/11/21 06:36:15;;;;;;;0.40;0.40;;;3.10;99.90;;;;;;5012585;28;20033;-77
2021/11/21 06:38:42;;;;;;;0.30;0.30;;;3.10;99.90;;;;;;5012700;28;20018;-77
2021/11/21 06:41:08;;;;;;;0.30;0.30;;;3.30;99.90;;;;;;5012551;28;20080;-78
2021/11/21 06:43:34;;;;;;;0.30;0.30;;;3.30;99.90;;;;;;5011542;28;20117;-77
2021/11/21 06:46:00;;;;;;;0.35;0.35;;;3.30;99.90;;;;;;5012363;28;20095;-77
2021/11/21 06:48:25;;;;;;;0.30;0.30;;;3.30;99.90;;;;;;5011345;28;20032;-77
2021/11/21 06:50:53;;;;;;;0.40;0.40;;;3.20;99.90;;;;;;5012218;28;20470;-77
2021/11/21 06:53:22;;;;;;;0.38;0.38;;;3.20;99.90;;;;;;5012297;28;20081;-77
2021/11/21 06:55:49;;;;;;;0.30;0.30;;;3.10;99.90;;;;;;5011262;28;20014;-77
2021/11/21 06:58:15;;;;;;;0.30;0.30;;;3.20;99.90;;;;;;5012446;28;20034;-77
2021/11/21 07:00:41;;;;;;;0.30;0.30;;;3.30;99.90;;;;;;5010972;28;20025;-77
2021/11/21 07:03:07;;;;;;;0.30;0.30;;;3.40;99.90;;;;;;5012414;28;20026;-77
2021/11/21 07:05:34;;;;;;;0.30;0.30;;;3.30;99.90;;;;;;5011684;28;20026;-77
2021/11/21 07:08:00;;;;;;;0.32;0.32;;;3.30;99.90;;;;;;5010908;28;20033;-77
2021/11/21 07:10:27;;;;;;;0.22;0.22;;;3.40;99.90;;;;;;5012197;28;20042;-77
2021/11/21 07:12:52;;;;;;;0.40;0.40;;;3.40;99.90;;;;;;5012152;28;20091;-77
2021/11/21 07:15:18;;;;;;;0.25;0.25;;;3.30;99.90;;;;;;5012033;28;20022;-77
2021/11/21 07:17:48;;;;;;;0.32;0.32;;;3.20;99.90;;;;;;5010848;28;20022;-76
2021/11/21 07:20:17;;;;;;;0.30;0.30;;;3.20;99.90;;;;;;5012095;28;20022;-76
2021/11/21 07:22:49;;;;;;;0.30;0.30;;;3.10;99.90;;;;;;5010776;28;20454;-77
2021/11/21 07:25:21;;;;;;;0.30;0.30;;;3.10;99.90;;;;;;5011993;28;20560;-77
2021/11/21 07:27:47;;;;;;;0.30;0.30;;;3.10;99.90;;;;;;5012441;28;20030;-77
2021/11/21 07:30:15;;;;;;;0.30;0.30;;;3.30;99.90;;;;;;5011902;28;20556;-79
2021/11/21 07:32:45;;;;;;;0.30;0.30;;;3.40;99.90;;;;;;5011935;28;20432;-77
2021/11/21 07:35:13;;;;;;;0.30;0.30;;;3.50;99.90;;;;;;5010535;28;20101;-77
2021/11/21 07:37:38;;;;;;;0.30;0.30;;;3.60;99.90;;;;;;5010556;28;20026;-77
2021/11/21 07:40:06;;;;;;;0.25;0.25;;;3.50;99.90;;;;;;5011810;28;20497;-77
2021/11/21 07:42:32;;;;;;;0.30;0.30;;;3.50;99.90;;;;;;5010458;28;20108;-77
2021/11/21 07:44:58;;;;;;;0.30;0.30;;;3.50;99.90;;;;;;5010381;28;20110;-78
2021/11/21 07:47:24;;;;;;;0.30;0.30;;;3.60;99.90;;;;;;5011717;28;20040;-78
2021/11/21 07:49:49;;;;;;;0.30;0.30;;;3.70;99.90;;;;;;5026832;28;20025;-77
2021/11/21 07:52:15;;;;;;;0.30;0.30;;;3.90;99.90;;;;;;5011806;28;20026;-77
2021/11/21 07:54:43;;;;;;;0.43;0.43;;;3.90;99.90;;;;;;5008683;28;20501;-77
2021/11/21 07:57:09;;;;;;;0.20;0.20;;;4.10;99.90;;;;;;5009425;28;20496;-77
2021/11/21 07:59:35;;;;;;;0.25;0.25;;;4.30;99.90;;;;;;5011189;28;20021;-77
2021/11/21 08:02:00;;;;;;;0.20;0.20;;;4.60;99.90;;;;;;5011627;28;20386;-77
2021/11/21 08:04:26;;;;;;;0.32;0.32;;;4.70;99.90;;;;;;5011329;28;20512;-77
2021/11/21 08:06:53;;;;;;;0.30;0.30;;;4.70;99.90;;;;;;5010275;28;20500;-77
2021/11/21 08:09:19;;;;;;;0.40;0.40;;;4.70;99.90;;;;;;5009614;28;20057;-77
2021/11/21 08:11:45;;;;;;;0.25;0.25;;;4.80;99.90;;;;;;5011500;28;20026;-77
2021/11/21 08:14:11;;;;;;;0.30;0.30;;;4.90;99.90;;;;;;5011466;28;20080;-77
2021/11/21 08:16:36;;;;;;;0.30;0.30;;;5.00;99.90;;;;;;5011458;28;20022;-77
2021/11/21 08:19:02;;;;;;;0.20;0.20;;;5.10;99.90;;;;;;5014658;28;20026;-78
2021/11/21 08:21:28;;;;;;;0.25;0.25;;;5.20;99.90;;;;;;5014046;28;20026;-77
2021/11/21 08:23:53;;;;;;;0.30;0.30;;;5.30;99.90;;;;;;5013505;28;20505;-75
2021/11/21 08:26:19;;;;;;;0.20;0.20;;;5.40;99.90;;;;;;5014599;28;20104;-75
2021/11/21 08:28:45;;;;;;;0.55;0.55;;;5.60;99.90;;;;;;5014818;28;20025;-75
2021/11/21 08:31:11;;;;;;;0.20;0.20;;;5.70;99.90;;;;;;5014639;28;20029;-77
2021/11/21 08:33:36;;;;;;;0.20;0.20;;;5.80;99.90;;;;;;5014694;28;20113;-78
2021/11/21 08:36:03;;;;;;;0.22;0.22;;;5.90;99.90;;;;;;5014524;28;20385;-76
2021/11/21 08:38:29;;;;;;;0.20;0.20;;;6.10;99.90;;;;;;5014583;28;20474;-77
2021/11/21 08:40:55;;;;;;;0.20;0.20;;;6.20;99.90;;;;;;5013407;28;20506;-76
2021/11/21 08:43:21;;;;;;;0.30;0.30;;;6.40;99.90;;;;;;5014855;28;20033;-77
2021/11/21 08:45:47;;;;;;;0.20;0.20;;;6.50;99.90;;;;;;5013712;28;20026;-76
2021/11/21 08:48:13;;;;;;;2.92;2.67;;;6.60;99.90;;;;;;5012984;28;20029;-77
2021/11/21 08:50:39;;;;;;;0.30;0.30;;;6.80;99.90;;;;;;5013331;28;20025;-76
2021/11/21 08:53:05;;;;;;;0.50;0.50;;;6.90;99.90;;;;;;5014132;28;20537;-78
2021/11/21 08:55:31;;;;;;;0.28;0.28;;;7.00;99.90;;;;;;5012427;28;20112;-76
2021/11/21 08:57:57;;;;;;;0.20;0.20;;;7.20;99.90;;;;;;5012415;28;20432;-76
2021/11/21 09:00:23;;;;;;;0.20;0.20;;;7.30;99.90;;;;;;5012835;28;20026;-76
2021/11/21 09:02:49;;;;;;;0.20;0.20;;;7.50;99.90;;;;;;5014088;28;20061;-76
2021/11/21 09:05:16;;;;;;;0.20;0.20;;;7.80;99.90;;;;;;5014286;28;20022;-76
2021/11/21 09:07:43;;;;;;;0.20;0.20;;;7.90;99.90;;;;;;5013081;28;20029;-77
2021/11/21 09:10:13;;;;;;;0.20;0.20;;;8.00;99.90;;;;;;5013572;28;20105;-76
2021/11/21 09:12:41;;;;;;;0.20;0.20;;;8.20;99.90;;;;;;5013713;28;20113;-76
2021/11/21 09:15:09;;;;;;;0.30;0.30;;;8.40;99.90;;;;;;5013279;28;20022;-76
2021/11/21 09:17:35;;;;;;;0.47;0.47;;;8.50;99.90;;;;;;5012836;28;20057;-77
2021/11/21 09:20:01;;;;;;;0.85;0.80;;;8.50;99.90;;;;;;5011737;28;20026;-77
2021/11/21 09:22:26;;;;;;;0.50;0.50;;;8.80;99.90;;;;;;5013322;28;20505;-76
2021/11/21 09:24:52;;;;;;;0.40;0.40;;;9.10;99.90;;;;;;5012704;28;20032;-77
2021/11/21 09:27:18;;;;;;;0.25;0.25;;;9.20;99.40;;;;;;5012878;28;20382;-77
2021/11/21 09:29:44;;;;;;;0.20;0.20;;;9.40;97.90;;;;;;5013117;28;20036;-77
2021/11/21 09:32:11;;;;;;;0.77;0.30;;;9.50;96.40;;;;;;5013209;28;20087;-78
2021/11/21 09:34:38;;;;;;;0.35;0.35;;;9.60;95.60;;;;;;5013338;28;20108;-77
2021/11/21 09:37:05;;;;;;;0.30;0.30;;;9.80;93.50;;;;;;5012247;28;20418;-78
2021/11/21 09:39:32;;;;;;;1.20;1.10;;;10.10;92.20;;;;;;5012126;28;20022;-76
2021/11/21 09:41:58;;;;;;;13.77;5.47;;;10.50;91.50;;;;;;5012064;28;20490;-77
2021/11/21 09:44:24;;;;;;;0.20;0.20;;;10.80;90.90;;;;;;5028555;28;20061;-80
2021/11/21 09:46:52;;;;;;;3.47;0.47;;;11.30;89.10;;;;;;5013262;28;20474;-78
2021/11/21 09:49:24;;;;;;;0.20;0.20;;;11.60;85.90;;;;;;5013034;28;20102;-77
2021/11/21 09:51:50;;;;;;;0.20;0.20;;;12.40;83.70;;;;;;5011766;28;20378;-77
2021/11/21 09:54:15;;;;;;;0.30;0.30;;;13.20;79.60;;;;;;5010610;28;20100;-77
2021/11/21 09:56:43;;;;;;;0.30;0.30;;;13.50;74.80;;;;;;5013126;28;20045;-77
2021/11/21 09:59:09;;;;;;;0.10;0.10;;;14.00;72.10;;;;;;5013836;28;20449;-77
2021/11/21 10:01:41;;;;;;;0.10;0.10;;;14.70;69.20;;;;;;5013004;28;20017;-77
2021/11/21 10:04:09;;;;;;;0.10;0.10;;;15.30;67.70;;;;;;5013047;28;20189;-78
2021/11/21 10:06:37;;;;;;;0.10;0.10;;;15.90;64.50;;;;;;5012893;28;20076;-77
2021/11/21 10:09:05;;;;;;;0.10;0.10;;;16.50;61.40;;;;;;5011482;28;20092;-76
2021/11/21 10:11:31;;;;;;;0.10;0.10;;;17.10;59.20;;;;;;5028011;28;20029;-76
2021/11/21 10:14:06;;;;;;;0.10;0.10;;;17.30;57.60;;;;;;5012772;28;20105;-75
2021/11/21 10:16:34;;;;;;;0.10;0.10;;;17.70;56.40;;;;;;5011136;28;20328;-75
2021/11/21 10:19:06;;;;;;;0.10;0.10;;;17.80;55.50;;;;;;5011267;28;20096;-75
2021/11/21 10:21:37;;;;;;;0.10;0.10;;;18.00;53.80;;;;;;5012639;28;20474;-75
2021/11/21 10:24:27;;;;;;;0.10;0.10;;;17.50;53.90;;;;;;5011342;28;20056;-75
2021/11/21 10:27:16;;;;;;;0.95;0.32;;;17.20;54.50;;;;;;5012571;28;20033;-77
2021/11/21 10:29:47;;;;;;;0.10;0.10;;;17.60;53.50;;;;;;5011214;28;20014;-76
2021/11/21 10:32:19;;;;;;;0.22;0.22;;;17.70;53.80;;;;;;5012485;28;20545;-77
2021/11/21 10:34:52;;;;;;;0.20;0.20;;;18.20;52.80;;;;;;5027493;28;20482;-76
2021/11/21 10:37:19;;;;;;;0.30;0.30;;;17.90;52.60;;;;;;5010879;28;20112;-77
2021/11/21 10:39:46;;;;;;;0.08;0.08;;;17.70;52.60;;;;;;5011444;28;20018;-76
2021/11/21 10:42:13;;;;;;;0.10;0.10;;;17.90;52.50;;;;;;5012231;28;20113;-75
2021/11/21 10:44:51;;;;;;;0.57;0.57;;;18.60;51.20;;;;;;5012063;28;20036;-76
2021/11/21 10:47:17;;;;;;;0.20;0.20;;;19.20;50.40;;;;;;5010827;28;20033;-76
2021/11/21 10:49:43;;;;;;;0.10;0.10;;;19.80;49.10;;;;;;5010846;28;20030;-76
2021/11/21 10:52:27;;;;;;;0.20;0.20;;;20.40;47.60;;;;;;5012074;28;20044;-76
2021/11/21 10:54:57;;;;;;;0.10;0.10;;;20.20;46.40;;;;;;5010804;28;20022;-76
2021/11/21 10:57:34;;;;;;;0.10;0.10;;;19.70;47.20;;;;;;5012150;28;20033;-75
2021/11/21 11:00:06;;;;;;;0.10;0.10;;;19.00;47.70;;;;;;5012059;28;20025;-76
2021/11/21 11:02:36;;;;;;;;;;;19.30;48.50;;;;;;5027922;28;20501;-76
2021/11/21 11:05:05;;;;;;;0.10;0.10;;;20.10;47.30;;;;;;5012034;28;19905;-76
2021/11/21 11:07:39;;;;;;;0.10;0.10;;;20.30;45.80;;;;;;5012000;28;20145;-76
2021/11/21 11:10:08;;;;;;;0.20;0.20;;;20.20;45.70;;;;;;5011915;28;20045;-76
2021/11/21 11:12:35;;;;;;;0.10;0.10;;;20.60;45.60;;;;;;5011835;28;20054;-76
2021/11/21 11:15:01;;;;;;;0.30;0.20;;;21.20;45.30;;;;;;5027098;28;20033;-77
2021/11/21 11:17:28;;;;;;;0.20;0.20;;;21.30;44.00;;;;;;5011875;28;20029;-77
2021/11/21 11:19:58;;;;;;;0.10;0.10;;;20.60;45.20;;;;;;5011735;28;20045;-77
2021/11/21 11:22:25;;;;;;;0.10;0.10;;;20.50;45.40;;;;;;5011912;28;20026;-76
2021/11/21 11:24:59;;;;;;;0.73;0.38;;;20.70;45.40;;;;;;5011520;28;20022;-77
2021/11/21 11:27:45;;;;;;;0.30;0.30;;;21.10;44.30;;;;;;5011824;28;20050;-77
2021/11/21 11:30:12;;;;;;;2.35;0.40;;;21.40;44.00;;;;;;4994179;28;20034;-76
2021/11/21 11:32:43;;;;;;;0.10;0.10;;;21.20;43.20;;;;;;5010535;28;20044;-77
2021/11/21 11:35:18;;;;;;;0.17;0.17;;;21.00;44.10;;;;;;5010352;28;20033;-76
2021/11/21 11:37:46;;;;;;;0.10;0.10;;;20.90;43.90;;;;;;5010671;28;20444;-77
2021/11/21 11:40:27;;;;;;;0.10;0.10;;;20.70;44.00;;;;;;5010458;28;20026;-77
2021/11/21 11:43:06;;;;;;;0.20;0.20;;;20.50;44.50;;;;;;5010185;28;20160;-76
2021/11/21 11:45:45;;;;;;;0.10;0.10;;;19.20;46.60;;;;;;5011658;28;20264;-77
2021/11/21 11:48:29;;;;;;;0.10;0.10;;;18.60;49.80;;;;;;5011581;28;20046;-76
2021/11/21 11:50:56;;;;;;;0.10;0.10;;;19.00;48.50;;;;;;5012309;28;20062;-76
2021/11/21 11:53:33;;;;;;;0.10;0.10;;;19.40;49.00;;;;;;5015428;28;20255;-76
2021/11/21 11:56:13;;;;;;;0.85;0.85;;;19.50;49.00;;;;;;5015461;28;20028;-76
2021/11/21 11:59:00;;;;;;;0.10;0.10;;;20.00;47.80;;;;;;5015195;28;20032;-76
2021/11/21 12:01:38;;;;;;;0.10;0.10;;;19.70;48.20;;;;;;4997583;28;20037;-77
2021/11/21 12:04:17;;;;;;;1.45;0.22;;;19.80;48.40;;;;;;4997588;28;20033;-76
2021/11/21 12:06:55;;;;;;;0.45;0.45;;;20.10;48.40;;;;;;5013804;28;20026;-76
2021/11/21 12:09:25;;;;;;;0.52;0.52;;;19.90;49.90;;;;;;5014977;28;20026;-76
2021/11/21 12:12:04;;;;;;;0.10;0.10;;;20.40;48.70;;;;;;5015201;28;20030;-76
2021/11/21 12:14:39;;;;;;;0.10;0.10;;;20.00;50.70;;;;;;5013514;28;20417;-76
2021/11/21 12:17:08;;;;;;;0.57;0.40;;;19.00;52.20;;;;;;5015034;28;20030;-76
2021/11/21 12:19:44;;;;;;;0.10;0.10;;;17.90;54.90;;;;;;5013534;28;20034;-76
2021/11/21 12:22:37;;;;;;;0.10;0.10;;;17.00;57.40;;;;;;5013506;28;20072;-76
2021/11/21 12:25:04;;;;;;;;;;;16.80;58.60;;;;;;5015069;28;20018;-75
2021/11/21 12:27:37;;;;;;;0.50;0.50;;;16.30;58.70;;;;;;5013635;28;20385;-75
2021/11/21 12:30:09;;;;;;;0.20;0.20;;;14.90;62.30;;;;;;5013414;28;20092;-77
2021/11/21 12:32:48;;;;;;;0.57;0.57;;;14.10;67.00;;;;;;5013499;28;20026;-75
2021/11/21 12:35:51;;;;;;;0.20;0.20;;;13.30;69.20;;;;;;5013626;28;20121;-75
2021/11/21 12:38:20;;;;;;;0.20;0.20;;;13.10;70.90;;;;;;4981034;28;20072;-76
2021/11/21 12:40:57;;;;;;;0.17;0.17;;;13.00;71.50;;;;;;5014579;28;20111;-76
2021/11/21 12:43:24;;;;;;;0.10;0.10;;;13.50;71.50;;;;;;5014548;28;20091;-77
2021/11/21 12:45:59;;;;;;;0.10;0.10;;;14.70;67.60;;;;;;5014384;28;20426;-76
2021/11/21 12:48:26;;;;;;;0.10;0.10;;;15.30;64.30;;;;;;5029782;28;20111;-76
2021/11/21 12:50:55;;;;;;;0.30;0.30;;;16.50;61.00;;;;;;5014370;28;20164;-76
2021/11/21 12:53:23;;;;;;;0.10;0.10;;;17.50;58.80;;;;;;5014352;28;20030;-76
2021/11/21 12:55:56;;;;;;;1.27;1.10;;;18.30;56.30;;;;;;5014138;28;20117;-77
2021/11/21 12:58:27;;;;;;;0.15;0.15;;;18.90;55.10;;;;;;5014257;28;20030;-77
2021/11/21 13:00:57;;;;;;;0.10;0.10;;;19.00;52.90;;;;;;5014182;28;20018;-76